Pagrindinis puslapis
METAR-TAF:

METAR-TAF

Oro uostai :

Clyde, Nunavutas, Kanada

platuma: 70-29N, ilguma: 068-31W, Aukštis: 25 m

Dabartinis oras

Ataskaita buvo paskelbta 21 minutes, ne 12:00 UTC
Vėjas 4 kt iš Vakarų/Šiaurės Vakarų
Temperatūra -32°C
Drėgmė 67%
Slėgis 1007 hPa
Matomumas: 14.5 km

METAR: CYCY 251200Z AUTO 30004KT 9SM M32/M36 A2974 RMK CLD MISG SLP076

Laikas: 07:21 (12:21 UTC)

Prognozė

Ataskaita buvo paskelbta 1 valandą ir 26 minutes, ne 10:55 UTC
Prognozė galioja nuo 25 metu 10 UTC su 25 metu 19 UTC
Vėjas 3 kt nuo kintamojo kryptimis
Matomumas: 10 km
Mažai debesys ne aukštis 200 ft
Laikinai
nuo 25 metu 10 UTC su 25 metu 15 UTC
Su prošvaistėmis ne aukštis 200 ft
Tapsmas
nuo 25 metu 13 UTC su 25 metu 15 UTC
Vėjas 8 kt iš Vakarų/Šiaurės Vakarų
Nuo 25 metu 1500 UTC
Vėjas 8 kt iš Vakarų/Šiaurės Vakarų
Matomumas: 10 km
Giedras dangus

TAF: CYCY 251055Z 2510/2519 VRB03KT P6SM FEW002 TEMPO 2510/2515 BKN002 BECMG 2513/2515 30008KT FM251500 30008KT P6SM SKC RMK FCST BASED ON AUTO OBS. NXT FCST BY 251300Z

Orai ataskaitas ir orų prognozės (METAR, TAF).

turimą stotys yra geltonos ir raudonos taškus žemėlapyje.

Perkelti pele per norėdami pamatyti stoties vardą.

Tada spustelėkite, norėdami matyti oro stebėjimo ir prognozės.

Norėdami pakeisti žemėlapį: spustelėkite ant žalios mygtukų su juodo kryžiaus žemyn,; žalią mygtuką su brūkšneliu, jei norite nutolinti; arba žalių rodyklių gretimoms žemėlapius.


METAR-TAF: